createdAt,value
2023-01-19T00:00:54.112Z,15.80
2023-01-19T00:03:21.659Z,19.75
2023-01-19T00:05:49.233Z,17.65
2023-01-19T00:08:16.300Z,16.20
2023-01-19T00:10:45.652Z,21.70
2023-01-19T00:13:13.487Z,15.80
2023-01-19T00:15:40.280Z,18.63
2023-01-19T00:18:09.047Z,14.00
2023-01-19T00:20:36.723Z,15.60
2023-01-19T00:23:03.642Z,19.35
2023-01-19T00:25:30.659Z,18.40
2023-01-19T00:27:57.249Z,14.38
2023-01-19T00:30:24.475Z,17.40
2023-01-19T00:32:51.340Z,16.38
2023-01-19T00:35:18.566Z,18.70
2023-01-19T00:37:46.146Z,17.15
2023-01-19T00:40:14.386Z,17.63
2023-01-19T00:42:41.629Z,24.38
2023-01-19T00:45:09.347Z,18.55
2023-01-19T00:47:36.353Z,24.45
2023-01-19T00:50:03.084Z,22.48
2023-01-19T00:52:30.296Z,21.60
2023-01-19T00:54:56.837Z,20.73
2023-01-19T00:57:23.526Z,22.58
2023-01-19T00:59:50.099Z,17.77
2023-01-19T01:02:17.263Z,16.85
2023-01-19T01:04:43.988Z,20.10
2023-01-19T01:07:10.485Z,20.52
2023-01-19T01:09:37.469Z,20.13
2023-01-19T01:12:04.263Z,27.27
2023-01-19T01:14:33.131Z,19.83
2023-01-19T01:17:00.505Z,23.15
2023-01-19T01:19:47.238Z,19.42
2023-01-19T01:22:33.696Z,24.88
2023-01-19T01:25:22.866Z,25.00
2023-01-19T01:28:10.098Z,28.08
2023-01-19T01:30:57.113Z,21.25
2023-01-19T01:33:43.539Z,22.02
2023-01-19T01:36:12.146Z,26.58
2023-01-19T01:38:42.344Z,26.60
2023-01-19T01:43:45.414Z,24.42
2023-01-19T01:46:15.259Z,22.88
2023-01-19T01:48:46.387Z,23.35
2023-01-19T01:51:24.734Z,28.65
2023-01-19T01:54:12.364Z,22.23
2023-01-19T01:56:42.493Z,24.33
2023-01-19T01:59:28.021Z,26.25
2023-01-19T02:02:21.475Z,23.02
2023-01-19T02:04:52.125Z,32.65
2023-01-19T02:10:33.805Z,24.90
2023-01-19T02:13:21.884Z,23.58
2023-01-19T02:15:51.128Z,26.33
2023-01-19T02:18:17.987Z,28.00
2023-01-19T02:21:04.827Z,26.17
2023-01-19T02:23:41.176Z,25.48
2023-01-19T02:26:10.492Z,27.08
2023-01-19T02:28:42.318Z,25.85
2023-01-19T02:31:10.569Z,29.20
2023-01-19T02:33:37.377Z,26.10
2023-01-19T02:36:08.526Z,26.23
2023-01-19T02:38:37.104Z,29.95
2023-01-19T02:41:06.268Z,31.05
2023-01-19T02:43:34.724Z,27.20
2023-01-19T02:46:01.256Z,25.48
2023-01-19T02:48:27.818Z,25.35
2023-01-19T02:51:04.070Z,24.45
2023-01-19T02:53:49.827Z,31.88
2023-01-19T02:56:25.456Z,23.20
2023-01-19T02:59:04.927Z,27.88
2023-01-19T03:02:08.840Z,26.02
2023-01-19T03:05:00.132Z,24.02
2023-01-19T03:07:54.725Z,25.63
2023-01-19T03:10:34.654Z,26.98
2023-01-19T03:13:26.092Z,26.10
2023-01-19T03:16:05.413Z,26.08
2023-01-19T03:18:36.100Z,26.93
2023-01-19T03:23:36.476Z,28.92
2023-01-19T03:26:07.536Z,23.52
2023-01-19T03:28:36.435Z,24.08
2023-01-19T03:31:10.273Z,24.75
2023-01-19T03:33:40.610Z,25.73
2023-01-19T03:36:17.219Z,30.70
2023-01-19T03:38:46.595Z,25.75
2023-01-19T03:41:17.774Z,32.58
2023-01-19T03:43:47.156Z,25.05
2023-01-19T03:46:17.368Z,26.17
2023-01-19T03:51:12.409Z,29.15
2023-01-19T03:53:38.926Z,27.92
2023-01-19T03:56:06.269Z,20.27
2023-01-19T03:58:33.102Z,27.98
2023-01-19T04:00:59.580Z,29.83
2023-01-19T04:03:26.572Z,24.50
2023-01-19T04:05:53.067Z,23.10
2023-01-19T04:08:20.246Z,24.15
2023-01-19T04:10:46.726Z,24.92
2023-01-19T04:13:13.377Z,27.10
2023-01-19T04:15:39.893Z,22.77
2023-01-19T04:18:06.948Z,23.13
2023-01-19T04:20:34.168Z,22.02
2023-01-19T04:23:01.948Z,27.40
2023-01-19T04:25:29.392Z,21.40
2023-01-19T04:27:58.174Z,24.17
2023-01-19T04:30:25.315Z,18.13
2023-01-19T04:32:52.500Z,19.35
2023-01-19T04:35:19.164Z,20.83
2023-01-19T04:37:46.004Z,22.40
2023-01-19T04:40:13.028Z,25.92
2023-01-19T04:42:43.822Z,24.90
2023-01-19T04:45:12.129Z,24.23
2023-01-19T04:47:38.846Z,19.23
2023-01-19T04:50:07.300Z,24.20
2023-01-19T04:52:37.637Z,26.45
2023-01-19T04:55:06.240Z,22.00
2023-01-19T04:57:32.816Z,23.58
2023-01-19T04:59:59.599Z,26.23
2023-01-19T05:02:27.150Z,19.45
2023-01-19T05:04:53.794Z,25.17
2023-01-19T05:07:20.456Z,22.10
2023-01-19T05:09:47.194Z,23.15
2023-01-19T05:12:13.643Z,30.00
2023-01-19T05:14:40.320Z,23.25
2023-01-19T05:17:07.409Z,24.17
2023-01-19T05:19:33.930Z,23.52
2023-01-19T05:22:02.514Z,22.90
2023-01-19T05:24:29.407Z,27.65
2023-01-19T05:26:56.779Z,29.73
2023-01-19T05:29:23.417Z,26.38
2023-01-19T05:31:50.241Z,25.80
2023-01-19T05:34:17.359Z,22.13
2023-01-19T05:36:44.056Z,25.10
2023-01-19T05:39:11.345Z,23.42
2023-01-19T05:41:37.880Z,30.35
2023-01-19T05:44:04.728Z,25.38
2023-01-19T05:46:32.869Z,25.90
2023-01-19T05:49:01.607Z,24.27
2023-01-19T05:51:34.729Z,26.90
2023-01-19T05:54:01.951Z,22.52
2023-01-19T05:56:29.438Z,28.00
2023-01-19T05:58:56.224Z,24.23
2023-01-19T06:01:23.207Z,20.15
2023-01-19T06:03:50.260Z,28.55
2023-01-19T06:06:17.118Z,26.50
2023-01-19T06:08:43.669Z,23.33
2023-01-19T06:11:10.776Z,23.92
2023-01-19T06:13:41.262Z,23.77
2023-01-19T06:16:08.973Z,22.50
2023-01-19T06:18:35.605Z,24.98
2023-01-19T06:21:10.682Z,24.75
2023-01-19T06:23:37.205Z,21.75
2023-01-19T06:26:04.193Z,22.35
2023-01-19T06:28:30.941Z,29.65
2023-01-19T06:30:57.886Z,24.58
2023-01-19T06:33:25.931Z,22.58
2023-01-19T06:35:52.723Z,25.50
2023-01-19T06:38:19.535Z,24.60
2023-01-19T06:40:53.750Z,25.00
2023-01-19T06:43:20.456Z,27.67
2023-01-19T06:45:47.895Z,23.67
2023-01-19T06:48:15.101Z,37.85
2023-01-19T06:50:41.734Z,27.45
2023-01-19T06:53:08.194Z,28.52
2023-01-19T06:55:36.498Z,26.70
2023-01-19T06:58:03.166Z,30.08
2023-01-19T07:00:30.643Z,28.40
2023-01-19T07:02:57.684Z,26.98
2023-01-19T07:05:24.366Z,29.63
2023-01-19T07:07:54.959Z,24.85
2023-01-19T07:10:22.894Z,23.95
2023-01-19T07:12:49.770Z,26.63
2023-01-19T07:15:19.528Z,26.13
2023-01-19T07:17:46.001Z,25.98
2023-01-19T07:20:14.277Z,31.35
2023-01-19T07:22:43.735Z,31.02
2023-01-19T07:25:10.602Z,29.15
2023-01-19T07:27:37.154Z,26.05
2023-01-19T07:30:04.832Z,25.45
2023-01-19T07:32:31.339Z,31.75
2023-01-19T07:34:58.236Z,26.10
2023-01-19T07:37:25.254Z,25.00
2023-01-19T07:39:51.943Z,26.55
2023-01-19T07:42:18.484Z,33.10
2023-01-19T07:44:45.564Z,22.02
2023-01-19T07:47:12.708Z,25.27
2023-01-19T07:49:40.176Z,21.92
2023-01-19T07:52:06.754Z,23.90
2023-01-19T07:54:33.907Z,23.52
2023-01-19T07:57:02.233Z,23.48
2023-01-19T07:59:30.257Z,26.88
2023-01-19T08:01:59.687Z,31.73
2023-01-19T08:04:29.569Z,26.48
2023-01-19T08:06:56.531Z,25.35
2023-01-19T08:09:24.493Z,21.45
2023-01-19T08:11:51.028Z,21.45
2023-01-19T08:14:17.740Z,22.80
2023-01-19T08:16:44.378Z,21.42
2023-01-19T08:19:12.692Z,22.33
2023-01-19T08:21:39.516Z,22.10
2023-01-19T08:24:06.409Z,28.35
2023-01-19T08:26:35.093Z,26.30
2023-01-19T08:29:05.462Z,27.35
2023-01-19T08:31:32.171Z,28.77
2023-01-19T08:33:59.029Z,25.13
2023-01-19T08:36:25.593Z,24.60
2023-01-19T08:38:52.820Z,29.02
2023-01-19T08:41:19.388Z,25.27
2023-01-19T08:43:46.551Z,23.08
2023-01-19T08:46:17.747Z,25.80
2023-01-19T08:48:45.185Z,25.73
2023-01-19T08:51:12.782Z,29.88
2023-01-19T08:53:39.331Z,26.35
2023-01-19T08:56:12.353Z,32.75
2023-01-19T08:58:43.724Z,27.92
2023-01-19T09:01:17.163Z,24.45
2023-01-19T09:03:44.213Z,26.45
2023-01-19T09:06:13.016Z,28.40
2023-01-19T09:08:39.549Z,29.48
2023-01-19T09:11:11.206Z,27.88
2023-01-19T09:13:38.610Z,24.88
2023-01-19T09:16:07.812Z,26.20
2023-01-19T09:18:35.561Z,27.63
2023-01-19T09:21:02.931Z,22.25
2023-01-19T09:23:29.732Z,27.88
2023-01-19T09:25:59.427Z,25.30
2023-01-19T09:28:26.595Z,30.05
2023-01-19T09:30:53.234Z,27.40
2023-01-19T09:33:19.875Z,32.72
2023-01-19T09:35:48.763Z,26.80
2023-01-19T09:38:17.008Z,27.50
2023-01-19T09:40:48.437Z,23.48
2023-01-19T09:43:33.582Z,27.90
2023-01-19T09:46:21.765Z,20.58
2023-01-19T09:48:52.876Z,21.02
2023-01-19T09:51:23.776Z,22.38
2023-01-19T09:54:15.709Z,22.95
2023-01-19T09:56:44.540Z,25.63
2023-01-19T09:59:23.384Z,23.35
2023-01-19T10:02:03.272Z,21.48
2023-01-19T10:04:39.019Z,21.65
2023-01-19T10:07:20.185Z,18.63
2023-01-19T10:10:10.246Z,22.92
2023-01-19T10:13:03.757Z,21.63
2023-01-19T10:16:08.347Z,23.15
2023-01-19T10:18:51.748Z,22.27
2023-01-19T10:21:32.094Z,24.63
2023-01-19T10:24:26.300Z,30.17
2023-01-19T10:26:54.884Z,24.08
2023-01-19T10:29:25.875Z,21.90
2023-01-19T10:32:04.470Z,22.05
2023-01-19T10:34:31.332Z,21.38
2023-01-19T10:37:25.376Z,20.50
2023-01-19T10:39:55.396Z,27.13
2023-01-19T10:42:21.915Z,22.10
2023-01-19T10:44:50.106Z,22.40
2023-01-19T10:47:21.702Z,18.92
2023-01-19T10:49:49.533Z,20.45
2023-01-19T10:52:32.998Z,25.92
2023-01-19T10:55:02.739Z,24.65
2023-01-19T10:57:32.934Z,22.95
2023-01-19T10:59:59.458Z,19.42
2023-01-19T11:02:31.811Z,24.02
2023-01-19T11:05:22.941Z,21.67
2023-01-19T11:07:49.496Z,20.40
2023-01-19T11:10:15.912Z,24.63
2023-01-19T11:12:46.315Z,21.13
2023-01-19T11:15:16.391Z,21.10
2023-01-19T11:17:45.976Z,18.70
2023-01-19T11:20:21.376Z,23.08
2023-01-19T11:22:49.052Z,18.45
2023-01-19T11:25:28.653Z,24.05
2023-01-19T11:27:55.101Z,19.57
2023-01-19T11:30:25.420Z,22.83
2023-01-19T11:32:52.450Z,17.85
2023-01-19T11:35:34.675Z,26.83
2023-01-19T11:38:13.269Z,20.17
2023-01-19T11:40:42.118Z,60.70
2023-01-19T11:43:13.548Z,27.15
2023-01-19T11:45:40.723Z,24.58
2023-01-19T11:48:07.344Z,21.23
2023-01-19T11:50:53.322Z,18.05
2023-01-19T11:53:29.818Z,19.95
2023-01-19T11:56:08.238Z,27.77
2023-01-19T11:58:39.625Z,17.38
2023-01-19T12:01:24.420Z,21.02
2023-01-19T12:04:01.452Z,22.65
2023-01-19T12:06:34.627Z,25.15
2023-01-19T12:09:10.476Z,18.40
2023-01-19T12:11:44.806Z,30.63
2023-01-19T12:14:20.168Z,39.92
2023-01-19T12:16:47.050Z,20.85
2023-01-19T12:19:31.329Z,30.45
2023-01-19T12:21:58.698Z,18.45
2023-01-19T12:24:49.340Z,17.10
2023-01-19T12:27:40.471Z,23.00
2023-01-19T12:30:28.547Z,25.83
2023-01-19T12:33:35.024Z,22.38
2023-01-19T12:36:06.746Z,20.02
2023-01-19T12:38:35.569Z,20.05
2023-01-19T12:41:37.614Z,24.75
2023-01-19T12:44:16.427Z,20.48
2023-01-19T12:46:54.487Z,20.10
2023-01-19T12:49:27.558Z,18.58
2023-01-19T12:52:25.091Z,17.63
2023-01-19T12:55:02.568Z,20.48
2023-01-19T12:57:50.583Z,17.55
2023-01-19T13:00:23.544Z,18.25
2023-01-19T13:02:55.512Z,19.98
2023-01-19T13:05:32.854Z,20.52
2023-01-19T13:08:02.970Z,17.80
2023-01-19T13:11:02.030Z,17.95
2023-01-19T13:13:31.212Z,22.65
2023-01-19T13:16:20.079Z,18.55
2023-01-19T13:19:05.664Z,23.33
2023-01-19T13:21:45.847Z,21.45
2023-01-19T13:24:19.267Z,18.88
2023-01-19T13:26:48.910Z,17.70
2023-01-19T13:29:18.642Z,15.98
2023-01-19T13:31:48.812Z,20.17
2023-01-19T13:34:19.840Z,17.48
2023-01-19T13:36:50.871Z,20.23
2023-01-19T13:39:28.531Z,21.88
2023-01-19T13:42:00.501Z,23.48
2023-01-19T13:44:31.202Z,16.15
2023-01-19T13:46:59.820Z,20.15
2023-01-19T13:49:33.016Z,18.70
2023-01-19T13:52:13.749Z,19.58
2023-01-19T13:54:54.761Z,18.33
2023-01-19T13:57:32.200Z,19.85
2023-01-19T14:00:07.861Z,18.52
2023-01-19T14:02:42.112Z,17.17
2023-01-19T14:05:24.548Z,17.67
2023-01-19T14:08:12.955Z,20.08
2023-01-19T14:10:46.142Z,19.25
2023-01-19T14:13:20.847Z,15.85
2023-01-19T14:15:50.429Z,16.48
2023-01-19T14:18:17.000Z,19.88
2023-01-19T14:20:57.693Z,18.58
2023-01-19T14:23:40.036Z,17.70
2023-01-19T14:26:46.477Z,15.38
2023-01-19T14:29:34.450Z,16.88
2023-01-19T14:32:13.316Z,15.00
2023-01-19T14:34:50.132Z,16.20
2023-01-19T14:37:23.180Z,15.60
2023-01-19T14:39:58.169Z,16.52
2023-01-19T14:42:29.021Z,17.42
2023-01-19T14:44:57.196Z,15.27
2023-01-19T14:47:37.090Z,12.45
2023-01-19T14:50:09.377Z,14.98
2023-01-19T14:52:40.822Z,16.92
2023-01-19T14:55:20.035Z,14.90
2023-01-19T14:57:47.036Z,13.55
2023-01-19T15:00:19.697Z,11.90
2023-01-19T15:02:47.116Z,15.73
2023-01-19T15:05:14.430Z,16.33
2023-01-19T15:07:43.076Z,15.40
2023-01-19T15:10:17.984Z,11.68
2023-01-19T15:12:45.237Z,12.18
2023-01-19T15:15:17.258Z,17.65
2023-01-19T15:17:44.642Z,15.25
2023-01-19T15:20:18.236Z,18.33
2023-01-19T15:22:45.353Z,15.75
2023-01-19T15:25:17.995Z,13.68
2023-01-19T15:27:45.907Z,17.63
2023-01-19T15:30:18.619Z,15.25
2023-01-19T15:32:46.238Z,11.13
2023-01-19T15:35:18.713Z,13.45
2023-01-19T15:37:45.812Z,19.75
2023-01-19T15:40:12.899Z,13.85
2023-01-19T15:42:39.755Z,16.33
2023-01-19T15:45:18.563Z,16.50
2023-01-19T15:47:44.984Z,14.10
2023-01-19T15:50:11.393Z,17.33
2023-01-19T15:52:37.845Z,14.85
2023-01-19T15:55:04.827Z,15.75
2023-01-19T15:57:31.310Z,18.85
2023-01-19T15:59:58.659Z,13.50
2023-01-19T16:02:25.295Z,15.10
2023-01-19T16:04:52.237Z,15.25
2023-01-19T16:07:19.449Z,16.08
2023-01-19T16:09:46.442Z,15.57
2023-01-19T16:12:12.929Z,16.73
2023-01-19T16:14:41.192Z,21.80
2023-01-19T16:17:07.708Z,22.77
2023-01-19T16:19:34.383Z,17.85
2023-01-19T16:22:00.903Z,18.80
2023-01-19T16:24:27.716Z,16.30
2023-01-19T16:26:54.434Z,18.80
2023-01-19T16:29:21.181Z,16.30
2023-01-19T16:31:47.639Z,23.83
2023-01-19T16:34:14.460Z,18.02
2023-01-19T16:36:42.115Z,21.23
2023-01-19T16:39:11.643Z,18.20
2023-01-19T16:41:38.553Z,16.50
2023-01-19T16:44:05.379Z,19.73
2023-01-19T16:46:38.874Z,23.00
2023-01-19T16:49:11.161Z,22.00
2023-01-19T16:51:37.971Z,17.60
2023-01-19T16:54:04.849Z,16.77
2023-01-19T16:56:32.112Z,13.20
2023-01-19T16:58:59.645Z,16.15
2023-01-19T17:01:29.042Z,16.77
2023-01-19T17:03:56.193Z,18.27
2023-01-19T17:06:24.012Z,18.35
2023-01-19T17:08:51.944Z,16.05
2023-01-19T17:11:24.129Z,18.27
2023-01-19T17:13:56.723Z,19.80
2023-01-19T17:16:24.846Z,17.77
2023-01-19T17:18:51.715Z,16.00
2023-01-19T17:21:19.341Z,16.23
2023-01-19T17:23:48.298Z,18.77
2023-01-19T17:26:15.931Z,21.95
2023-01-19T17:28:43.384Z,16.48
2023-01-19T17:31:12.645Z,19.27
2023-01-19T17:33:40.353Z,17.15
2023-01-19T17:36:10.178Z,17.73
2023-01-19T17:38:37.144Z,23.55
2023-01-19T17:41:14.717Z,18.27
2023-01-19T17:43:41.898Z,14.27
2023-01-19T17:46:08.966Z,18.48
2023-01-19T17:48:35.475Z,15.43
2023-01-19T17:51:06.631Z,17.10
2023-01-19T17:53:35.520Z,19.30
2023-01-19T17:56:06.317Z,17.25
2023-01-19T17:58:33.639Z,19.02
2023-01-19T18:01:08.728Z,16.10
2023-01-19T18:03:35.514Z,17.60
2023-01-19T18:06:02.220Z,22.23
2023-01-19T18:08:29.274Z,17.75
2023-01-19T18:10:57.779Z,16.17
2023-01-19T18:13:24.888Z,21.45
2023-01-19T18:15:51.952Z,12.43
2023-01-19T18:18:18.416Z,14.13
2023-01-19T18:20:44.887Z,15.63
2023-01-19T18:23:12.031Z,23.63
2023-01-19T18:25:39.672Z,30.73
2023-01-19T18:28:07.137Z,24.63
2023-01-19T18:30:35.816Z,34.13
2023-01-19T18:33:02.994Z,24.65
2023-01-19T18:35:29.860Z,20.20
2023-01-19T18:37:58.974Z,18.25
2023-01-19T18:40:25.870Z,17.67
2023-01-19T18:42:52.293Z,15.75
2023-01-19T18:45:19.188Z,13.65
2023-01-19T18:47:45.742Z,18.27
2023-01-19T18:50:14.352Z,17.80
2023-01-19T18:52:41.455Z,19.08
2023-01-19T18:55:08.341Z,23.15
2023-01-19T18:57:35.669Z,19.65
2023-01-19T19:00:03.371Z,21.15
2023-01-19T19:02:29.933Z,16.85
2023-01-19T19:04:56.855Z,15.48
2023-01-19T19:07:23.418Z,14.65
2023-01-19T19:09:49.999Z,15.38
2023-01-19T19:12:16.488Z,15.15
2023-01-19T19:14:42.936Z,16.13
2023-01-19T19:17:09.413Z,13.73
2023-01-19T19:19:36.215Z,14.48
2023-01-19T19:22:03.159Z,16.13
2023-01-19T19:24:29.907Z,16.38
2023-01-19T19:26:56.884Z,15.27
2023-01-19T19:29:23.629Z,16.52
2023-01-19T19:31:50.233Z,16.25
2023-01-19T19:34:16.974Z,17.17
2023-01-19T19:36:43.570Z,17.10
2023-01-19T19:39:10.221Z,20.52
2023-01-19T19:41:38.709Z,17.33
2023-01-19T19:44:05.371Z,18.80
2023-01-19T19:46:31.903Z,18.48
2023-01-19T19:48:58.453Z,16.05
2023-01-19T19:51:27.455Z,13.88
2023-01-19T19:53:56.339Z,13.25
2023-01-19T19:56:24.325Z,15.43
2023-01-19T19:58:54.087Z,17.42
2023-01-19T20:01:26.971Z,13.83
2023-01-19T20:03:54.737Z,16.25
2023-01-19T20:06:23.215Z,16.00
2023-01-19T20:08:54.643Z,15.20
2023-01-19T20:11:24.079Z,21.75
2023-01-19T20:13:50.777Z,17.87
2023-01-19T20:16:19.740Z,20.00
2023-01-19T20:18:50.804Z,17.42
2023-01-19T20:21:25.298Z,19.65
2023-01-19T20:23:53.006Z,16.60
2023-01-19T20:26:25.254Z,16.30
2023-01-19T20:28:52.582Z,15.45
2023-01-19T20:31:22.515Z,15.68
2023-01-19T20:33:51.578Z,27.50
2023-01-19T20:36:19.206Z,29.65
2023-01-19T20:38:45.925Z,29.20
2023-01-19T20:41:13.350Z,26.33
2023-01-19T20:43:40.311Z,19.95
2023-01-19T20:46:07.333Z,25.05
2023-01-19T20:48:34.315Z,16.25
2023-01-19T20:51:08.682Z,17.55
2023-01-19T20:53:36.352Z,18.33
2023-01-19T20:56:08.468Z,17.67
2023-01-19T20:58:35.278Z,14.68
2023-01-19T21:01:11.956Z,17.58
2023-01-19T21:03:38.834Z,16.83
2023-01-19T21:06:05.850Z,16.83
2023-01-19T21:08:32.828Z,17.73
2023-01-19T21:10:59.496Z,17.70
2023-01-19T21:13:26.630Z,13.68
2023-01-19T21:15:53.773Z,15.45
2023-01-19T21:18:20.495Z,16.85
2023-01-19T21:20:49.993Z,16.75
2023-01-19T21:23:18.960Z,18.23
2023-01-19T21:25:51.133Z,18.45
2023-01-19T21:28:18.639Z,16.05
2023-01-19T21:30:46.245Z,18.42
2023-01-19T21:33:12.958Z,16.63
2023-01-19T21:35:40.040Z,16.63
2023-01-19T21:38:06.555Z,20.85
2023-01-19T21:40:33.586Z,15.68
2023-01-19T21:43:00.398Z,17.10
2023-01-19T21:45:26.912Z,17.25
2023-01-19T21:47:53.710Z,16.05
2023-01-19T21:50:20.739Z,18.77
2023-01-19T21:52:47.176Z,20.33
2023-01-19T21:55:13.806Z,12.52
2023-01-19T21:57:40.974Z,21.27
2023-01-19T22:00:10.138Z,15.70
2023-01-19T22:02:39.081Z,18.95
2023-01-19T22:05:06.531Z,20.30
2023-01-19T22:07:33.390Z,17.42
2023-01-19T22:09:59.867Z,20.90
2023-01-19T22:12:27.099Z,15.00
2023-01-19T22:14:53.676Z,21.15
2023-01-19T22:17:20.282Z,15.13
2023-01-19T22:19:48.244Z,18.52
2023-01-19T22:22:15.019Z,14.00
2023-01-19T22:24:46.401Z,16.30
2023-01-19T22:27:13.493Z,14.05
2023-01-19T22:29:40.224Z,19.92
2023-01-19T22:32:06.913Z,18.20
2023-01-19T22:34:33.593Z,15.95
2023-01-19T22:37:00.112Z,17.08
2023-01-19T22:39:27.368Z,20.52
2023-01-19T22:41:53.877Z,16.35
2023-01-19T22:44:21.851Z,16.95
2023-01-19T22:46:49.961Z,20.92
2023-01-19T22:49:17.997Z,20.33
2023-01-19T22:51:45.099Z,19.80
2023-01-19T22:54:12.702Z,19.77
2023-01-19T22:56:40.206Z,20.83
2023-01-19T22:59:07.388Z,19.58
2023-01-19T23:01:40.779Z,20.45
2023-01-19T23:04:10.664Z,20.15
2023-01-19T23:06:38.061Z,20.77
2023-01-19T23:09:08.250Z,15.15
2023-01-19T23:11:37.408Z,17.50
2023-01-19T23:14:06.830Z,19.42
2023-01-19T23:16:34.992Z,20.17
2023-01-19T23:19:02.307Z,20.23
2023-01-19T23:21:30.493Z,17.13
2023-01-19T23:23:59.339Z,19.90
2023-01-19T23:26:27.528Z,18.52
2023-01-19T23:28:59.500Z,19.23
2023-01-19T23:31:28.725Z,17.98
2023-01-19T23:33:57.591Z,18.58
2023-01-19T23:36:26.278Z,17.67
2023-01-19T23:38:56.409Z,20.23
2023-01-19T23:41:24.540Z,14.95
2023-01-19T23:43:51.838Z,16.48
2023-01-19T23:46:19.345Z,14.30
2023-01-19T23:48:46.578Z,16.98
2023-01-19T23:51:16.438Z,22.08
2023-01-19T23:53:43.576Z,18.58
2023-01-19T23:56:17.227Z,19.00
2023-01-19T23:58:48.784Z,19.10
